sensor_id;sensor_type;location;lat;lon;timestamp;pressure;altitude;pressure_sealevel;temperature;humidity
46534;BME280;32260;52.008;4.752;2023-03-26T00:00:58;100768.34;;;10.79;69.52
46534;BME280;32260;52.008;4.752;2023-03-26T00:03:24;100767.41;;;10.81;69.48
46534;BME280;32260;52.008;4.752;2023-03-26T00:08:39;100765.56;;;10.85;68.71
46534;BME280;32260;52.008;4.752;2023-03-26T00:11:08;100762.03;;;10.86;69.68
46534;BME280;32260;52.008;4.752;2023-03-26T00:13:35;100764.66;;;10.86;69.40
46534;BME280;32260;52.008;4.752;2023-03-26T00:16:02;100761.16;;;10.86;69.35
46534;BME280;32260;52.008;4.752;2023-03-26T00:18:29;100759.38;;;10.86;69.91
46534;BME280;32260;52.008;4.752;2023-03-26T00:20:58;100754.97;;;10.85;70.46
46534;BME280;32260;52.008;4.752;2023-03-26T00:23:25;100745.22;;;10.87;70.43
46534;BME280;32260;52.008;4.752;2023-03-26T00:25:52;100746.06;;;10.88;69.32
46534;BME280;32260;52.008;4.752;2023-03-26T00:28:19;100742.47;;;10.90;70.27
46534;BME280;32260;52.008;4.752;2023-03-26T00:30:48;100731.88;;;10.92;70.11
46534;BME280;32260;52.008;4.752;2023-03-26T00:33:15;100730.91;;;10.94;70.14
46534;BME280;32260;52.008;4.752;2023-03-26T00:35:43;100725.63;;;10.94;70.64
46534;BME280;32260;52.008;4.752;2023-03-26T00:38:13;100716.75;;;10.95;70.80
46534;BME280;32260;52.008;4.752;2023-03-26T00:40:39;100715.06;;;10.91;70.92
46534;BME280;32260;52.008;4.752;2023-03-26T00:43:09;100715.00;;;10.94;70.87
46534;BME280;32260;52.008;4.752;2023-03-26T00:45:51;100715.81;;;10.96;71.07
46534;BME280;32260;52.008;4.752;2023-03-26T00:48:20;100713.97;;;11.00;70.69
46534;BME280;32260;52.008;4.752;2023-03-26T00:50:48;100712.22;;;11.00;71.24
46534;BME280;32260;52.008;4.752;2023-03-26T00:53:16;100702.44;;;11.03;70.79
46534;BME280;32260;52.008;4.752;2023-03-26T00:55:43;100696.22;;;11.04;71.03
46534;BME280;32260;52.008;4.752;2023-03-26T00:58:11;100692.72;;;11.03;70.96
46534;BME280;32260;52.008;4.752;2023-03-26T01:00:45;100692.56;;;11.08;70.68
46534;BME280;32260;52.008;4.752;2023-03-26T01:03:15;100687.47;;;11.02;71.17
46534;BME280;32260;52.008;4.752;2023-03-26T01:05:48;100687.38;;;11.05;70.94
46534;BME280;32260;52.008;4.752;2023-03-26T01:08:29;100680.25;;;11.07;71.14
46534;BME280;32260;52.008;4.752;2023-03-26T01:11:00;100674.19;;;11.02;71.27
46534;BME280;32260;52.008;4.752;2023-03-26T01:13:30;100677.75;;;11.00;71.26
46534;BME280;32260;52.008;4.752;2023-03-26T01:15:58;100678.56;;;11.03;71.45
46534;BME280;32260;52.008;4.752;2023-03-26T01:18:29;100672.34;;;11.04;71.14
46534;BME280;32260;52.008;4.752;2023-03-26T01:21:00;100664.34;;;11.07;70.94
46534;BME280;32260;52.008;4.752;2023-03-26T01:23:39;100658.16;;;11.06;70.83
46534;BME280;32260;52.008;4.752;2023-03-26T01:26:15;100666.19;;;11.03;71.33
46534;BME280;32260;52.008;4.752;2023-03-26T01:28:43;100667.16;;;10.99;71.32
46534;BME280;32260;52.008;4.752;2023-03-26T01:31:20;100651.31;;;10.97;71.61
46534;BME280;32260;52.008;4.752;2023-03-26T01:34:01;100651.25;;;11.00;71.51
46534;BME280;32260;52.008;4.752;2023-03-26T01:36:40;100638.19;;;10.91;71.26
46534;BME280;32260;52.008;4.752;2023-03-26T01:42:00;100648.19;;;10.80;71.19
46534;BME280;32260;52.008;4.752;2023-03-26T01:47:07;100639.56;;;10.72;71.25
46534;BME280;32260;52.008;4.752;2023-03-26T01:49:35;100629.88;;;10.71;71.68
46534;BME280;32260;52.008;4.752;2023-03-26T01:52:01;100628.19;;;10.66;71.24
46534;BME280;32260;52.008;4.752;2023-03-26T01:54:29;100620.47;;;10.57;72.23
46534;BME280;32260;52.008;4.752;2023-03-26T02:02:48;100616.03;;;10.58;71.86
46534;BME280;32260;52.008;4.752;2023-03-26T02:05:24;100619.63;;;10.57;72.07
46534;BME280;32260;52.008;4.752;2023-03-26T02:08:02;100614.38;;;10.54;71.55
46534;BME280;32260;52.008;4.752;2023-03-26T02:10:34;100614.38;;;10.54;71.38
46534;BME280;32260;52.008;4.752;2023-03-26T02:13:03;100613.50;;;10.53;71.89
46534;BME280;32260;52.008;4.752;2023-03-26T02:15:31;100619.63;;;10.55;71.73
46534;BME280;32260;52.008;4.752;2023-03-26T02:17:57;100617.88;;;10.56;72.20
46534;BME280;32260;52.008;4.752;2023-03-26T02:20:25;100611.59;;;10.60;72.09
46534;BME280;32260;52.008;4.752;2023-03-26T02:22:55;100602.78;;;10.59;72.48
46534;BME280;32260;52.008;4.752;2023-03-26T02:25:22;100594.69;;;10.64;72.14
46534;BME280;32260;52.008;4.752;2023-03-26T02:27:49;100591.09;;;10.66;72.46
46534;BME280;32260;52.008;4.752;2023-03-26T02:30:20;100588.38;;;10.70;71.91
46534;BME280;32260;52.008;4.752;2023-03-26T02:32:46;100581.28;;;10.72;72.21
46534;BME280;32260;52.008;4.752;2023-03-26T02:35:13;100583.94;;;10.72;71.94
46534;BME280;32260;52.008;4.752;2023-03-26T02:37:39;100584.00;;;10.68;72.30
46534;BME280;32260;52.008;4.752;2023-03-26T02:40:07;100583.03;;;10.71;72.31
46534;BME280;32260;52.008;4.752;2023-03-26T02:42:36;100581.13;;;10.76;72.07
46534;BME280;32260;52.008;4.752;2023-03-26T02:45:04;100572.25;;;10.79;71.81
46534;BME280;32260;52.008;4.752;2023-03-26T02:47:30;100577.53;;;10.79;71.82
46534;BME280;32260;52.008;4.752;2023-03-26T02:49:58;100563.38;;;10.80;71.51
46534;BME280;32260;52.008;4.752;2023-03-26T02:52:24;100565.19;;;10.78;72.15
46534;BME280;32260;52.008;4.752;2023-03-26T02:54:50;100562.53;;;10.79;71.94
46534;BME280;32260;52.008;4.752;2023-03-26T02:57:18;100554.69;;;10.75;72.21
46534;BME280;32260;52.008;4.752;2023-03-26T02:59:44;100562.63;;;10.75;72.01
46534;BME280;32260;52.008;4.752;2023-03-26T03:02:11;100567.84;;;10.79;71.74
46534;BME280;32260;52.008;4.752;2023-03-26T03:04:38;100563.44;;;10.78;72.10
46534;BME280;32260;52.008;4.752;2023-03-26T03:07:04;100562.47;;;10.81;71.86
46534;BME280;32260;52.008;4.752;2023-03-26T03:09:30;100559.78;;;10.82;71.79
46534;BME280;32260;52.008;4.752;2023-03-26T03:11:56;100554.59;;;10.78;71.91
46534;BME280;32260;52.008;4.752;2023-03-26T03:14:23;100552.88;;;10.77;71.73
46534;BME280;32260;52.008;4.752;2023-03-26T03:16:49;100555.53;;;10.75;71.23
46534;BME280;32260;52.008;4.752;2023-03-26T03:19:15;100551.13;;;10.76;71.36
46534;BME280;32260;52.008;4.752;2023-03-26T03:21:41;100542.34;;;10.74;71.69
46534;BME280;32260;52.008;4.752;2023-03-26T03:24:08;100540.53;;;10.76;71.73
46534;BME280;32260;52.008;4.752;2023-03-26T03:26:36;100537.88;;;10.76;71.57
46534;BME280;32260;52.008;4.752;2023-03-26T03:29:02;100536.97;;;10.77;71.71
46534;BME280;32260;52.008;4.752;2023-03-26T03:31:29;100526.25;;;10.81;71.55
46534;BME280;32260;52.008;4.752;2023-03-26T03:33:55;100530.59;;;10.84;71.43
46534;BME280;32260;52.008;4.752;2023-03-26T03:36:22;100524.38;;;10.85;71.60
46534;BME280;32260;52.008;4.752;2023-03-26T03:38:49;100532.22;;;10.90;71.57
46534;BME280;32260;52.008;4.752;2023-03-26T03:41:16;100525.09;;;10.92;71.68
46534;BME280;32260;52.008;4.752;2023-03-26T03:43:44;100527.63;;;10.96;71.62
46534;BME280;32260;52.008;4.752;2023-03-26T03:46:10;100527.59;;;10.98;71.25
46534;BME280;32260;52.008;4.752;2023-03-26T03:48:36;100525.75;;;11.02;71.27
46534;BME280;32260;52.008;4.752;2023-03-26T03:51:04;100514.19;;;11.04;71.53
46534;BME280;32260;52.008;4.752;2023-03-26T03:53:31;100508.78;;;11.07;71.23
46534;BME280;32260;52.008;4.752;2023-03-26T03:55:57;100507.81;;;11.10;71.13
46534;BME280;32260;52.008;4.752;2023-03-26T03:58:25;100506.00;;;11.12;71.25
46534;BME280;32260;52.008;4.752;2023-03-26T04:00:54;100509.47;;;11.14;71.56
46534;BME280;32260;52.008;4.752;2023-03-26T04:03:25;100505.56;;;11.27;71.06
46534;BME280;32260;52.008;4.752;2023-03-26T04:05:52;100499.69;;;11.16;71.25
46534;BME280;32260;52.008;4.752;2023-03-26T04:08:20;100500.59;;;11.15;71.33
46534;BME280;32260;52.008;4.752;2023-03-26T04:10:47;100494.50;;;11.13;70.87
46534;BME280;32260;52.008;4.752;2023-03-26T04:13:14;100495.41;;;11.12;70.96
46534;BME280;32260;52.008;4.752;2023-03-26T04:15:42;100494.50;;;11.11;70.86
46534;BME280;32260;52.008;4.752;2023-03-26T04:18:09;100486.59;;;11.10;70.52
46534;BME280;32260;52.008;4.752;2023-03-26T04:20:37;100483.91;;;11.11;70.96
46534;BME280;32260;52.008;4.752;2023-03-26T04:23:06;100476.78;;;11.13;71.08
46534;BME280;32260;52.008;4.752;2023-03-26T04:25:34;100470.59;;;11.14;70.77
46534;BME280;32260;52.008;4.752;2023-03-26T04:28:04;100465.22;;;11.16;71.01
46534;BME280;32260;52.008;4.752;2023-03-26T04:30:33;100464.31;;;11.17;70.53
46534;BME280;32260;52.008;4.752;2023-03-26T04:33:02;100452.75;;;11.20;70.57
46534;BME280;32260;52.008;4.752;2023-03-26T04:35:31;100446.59;;;11.19;70.85
46534;BME280;32260;52.008;4.752;2023-03-26T04:38:00;100451.06;;;11.17;70.42
46534;BME280;32260;52.008;4.752;2023-03-26T04:40:26;100447.56;;;11.15;70.35
46534;BME280;32260;52.008;4.752;2023-03-26T04:42:55;100440.56;;;11.12;70.39
46534;BME280;32260;52.008;4.752;2023-03-26T04:45:23;100439.78;;;11.09;70.76
46534;BME280;32260;52.008;4.752;2023-03-26T04:47:50;100439.00;;;11.07;70.47
46534;BME280;32260;52.008;4.752;2023-03-26T04:50:16;100426.72;;;11.03;70.75
46534;BME280;32260;52.008;4.752;2023-03-26T04:52:42;100426.81;;;10.99;70.40
46534;BME280;32260;52.008;4.752;2023-03-26T04:55:20;100426.75;;;11.01;70.32
46534;BME280;32260;52.008;4.752;2023-03-26T04:57:52;100429.50;;;10.98;70.49
46534;BME280;32260;52.008;4.752;2023-03-26T05:00:19;100418.13;;;10.94;70.52
46534;BME280;32260;52.008;4.752;2023-03-26T05:02:46;100410.19;;;10.94;70.64
46534;BME280;32260;52.008;4.752;2023-03-26T05:05:16;100402.22;;;10.94;70.49
46534;BME280;32260;52.008;4.752;2023-03-26T05:07:42;100402.22;;;10.94;70.66
46534;BME280;32260;52.008;4.752;2023-03-26T05:10:11;100401.31;;;10.95;70.75
46534;BME280;32260;52.008;4.752;2023-03-26T05:12:38;100397.72;;;10.96;71.07
46534;BME280;32260;52.008;4.752;2023-03-26T05:15:05;100396.91;;;10.94;70.99
46534;BME280;32260;52.008;4.752;2023-03-26T05:17:31;100393.38;;;10.95;70.96
46534;BME280;32260;52.008;4.752;2023-03-26T05:20:00;100392.47;;;10.95;71.24
46534;BME280;32260;52.008;4.752;2023-03-26T05:22:26;100386.31;;;10.94;71.33
46534;BME280;32260;52.008;4.752;2023-03-26T05:24:52;100385.44;;;10.94;71.07
46534;BME280;32260;52.008;4.752;2023-03-26T05:27:18;100376.63;;;10.93;70.76
46534;BME280;32260;52.008;4.752;2023-03-26T05:29:46;100369.56;;;10.92;70.78
46534;BME280;32260;52.008;4.752;2023-03-26T05:32:12;100365.19;;;10.91;71.14
46534;BME280;32260;52.008;4.752;2023-03-26T05:34:39;100364.34;;;10.91;70.89
46534;BME280;32260;52.008;4.752;2023-03-26T05:37:06;100360.03;;;10.87;71.12
46534;BME280;32260;52.008;4.752;2023-03-26T05:39:33;100358.31;;;10.84;71.06
46534;BME280;32260;52.008;4.752;2023-03-26T05:42:00;100353.13;;;10.81;70.87
46534;BME280;32260;52.008;4.752;2023-03-26T05:44:26;100350.53;;;10.78;71.08
46534;BME280;32260;52.008;4.752;2023-03-26T05:46:52;100349.75;;;10.76;71.35
46534;BME280;32260;52.008;4.752;2023-03-26T05:49:19;100354.25;;;10.72;71.37
46534;BME280;32260;52.008;4.752;2023-03-26T05:51:45;100348.19;;;10.68;71.15
46534;BME280;32260;52.008;4.752;2023-03-26T05:54:11;100344.63;;;10.70;71.33
46534;BME280;32260;52.008;4.752;2023-03-26T05:56:37;100343.84;;;10.66;71.57
46534;BME280;32260;52.008;4.752;2023-03-26T05:59:04;100342.03;;;10.66;71.54
46534;BME280;32260;52.008;4.752;2023-03-26T06:01:30;100346.44;;;10.67;71.44
46534;BME280;32260;52.008;4.752;2023-03-26T06:03:56;100343.78;;;10.67;71.69
46534;BME280;32260;52.008;4.752;2023-03-26T06:06:22;100338.47;;;10.67;71.74
46534;BME280;32260;52.008;4.752;2023-03-26T06:08:50;100336.72;;;10.68;71.62
46534;BME280;32260;52.008;4.752;2023-03-26T06:11:18;100334.09;;;10.66;71.91
46534;BME280;32260;52.008;4.752;2023-03-26T06:13:45;100336.91;;;10.62;71.84
46534;BME280;32260;52.008;4.752;2023-03-26T06:16:13;100329.84;;;10.61;71.85
46534;BME280;32260;52.008;4.752;2023-03-26T06:18:39;100327.28;;;10.58;71.88
46534;BME280;32260;52.008;4.752;2023-03-26T06:21:06;100335.19;;;10.59;71.93
46534;BME280;32260;52.008;4.752;2023-03-26T06:23:32;100327.19;;;10.61;71.96
46534;BME280;32260;52.008;4.752;2023-03-26T06:25:58;100324.50;;;10.62;71.73
46534;BME280;32260;52.008;4.752;2023-03-26T06:28:25;100322.69;;;10.64;72.14
46534;BME280;32260;52.008;4.752;2023-03-26T06:30:51;100307.59;;;10.66;72.02
46534;BME280;32260;52.008;4.752;2023-03-26T06:33:17;100319.03;;;10.68;72.15
46534;BME280;32260;52.008;4.752;2023-03-26T06:35:44;100324.19;;;10.73;72.04
46534;BME280;32260;52.008;4.752;2023-03-26T06:38:11;100322.47;;;10.72;72.38
46534;BME280;32260;52.008;4.752;2023-03-26T06:40:38;100315.38;;;10.73;72.35
46534;BME280;32260;52.008;4.752;2023-03-26T06:43:04;100322.34;;;10.75;72.37
46534;BME280;32260;52.008;4.752;2023-03-26T06:45:32;100322.34;;;10.77;72.04
46534;BME280;32260;52.008;4.752;2023-03-26T06:47:58;100325.00;;;10.77;71.82
46534;BME280;32260;52.008;4.752;2023-03-26T06:50:26;100331.19;;;10.76;72.21
46534;BME280;32260;52.008;4.752;2023-03-26T06:52:54;100328.63;;;10.73;72.12
46534;BME280;32260;52.008;4.752;2023-03-26T06:55:20;100328.63;;;10.73;72.06
46534;BME280;32260;52.008;4.752;2023-03-26T06:57:49;100330.31;;;10.75;71.74
46534;BME280;32260;52.008;4.752;2023-03-26T07:00:16;100326.81;;;10.75;72.10
46534;BME280;32260;52.008;4.752;2023-03-26T07:02:42;100335.66;;;10.74;71.97
46534;BME280;32260;52.008;4.752;2023-03-26T07:05:09;100330.19;;;10.80;72.02
46534;BME280;32260;52.008;4.752;2023-03-26T07:07:35;100330.09;;;10.83;72.08
46534;BME280;32260;52.008;4.752;2023-03-26T07:10:01;100324.63;;;10.89;72.16
46534;BME280;32260;52.008;4.752;2023-03-26T07:12:27;100319.09;;;10.97;72.14
46534;BME280;32260;52.008;4.752;2023-03-26T07:14:53;100318.03;;;11.03;72.41
46534;BME280;32260;52.008;4.752;2023-03-26T07:17:19;100322.22;;;11.10;71.95
46534;BME280;32260;52.008;4.752;2023-03-26T07:19:46;100320.28;;;11.16;72.44
46534;BME280;32260;52.008;4.752;2023-03-26T07:22:19;100317.44;;;11.23;72.05
46534;BME280;32260;52.008;4.752;2023-03-26T07:24:46;100314.66;;;11.26;71.93
46534;BME280;32260;52.008;4.752;2023-03-26T07:27:35;100309.13;;;11.33;71.55
46534;BME280;32260;52.008;4.752;2023-03-26T07:30:08;100311.88;;;11.30;71.94
46534;BME280;32260;52.008;4.752;2023-03-26T07:38:19;100309.31;;;11.27;72.14
46534;BME280;32260;52.008;4.752;2023-03-26T07:46:22;100305.25;;;11.44;71.77
46534;BME280;32260;52.008;4.752;2023-03-26T07:48:49;100305.31;;;11.42;71.83
46534;BME280;32260;52.008;4.752;2023-03-26T07:51:17;100299.91;;;11.45;71.42
46534;BME280;32260;52.008;4.752;2023-03-26T07:53:43;100302.72;;;11.41;72.07
46534;BME280;32260;52.008;4.752;2023-03-26T08:07:02;100296.66;;;11.64;71.36
46534;BME280;32260;52.008;4.752;2023-03-26T08:09:38;100301.78;;;11.69;72.03
46534;BME280;32260;52.008;4.752;2023-03-26T08:18:10;100305.22;;;11.72;71.74
46534;BME280;32260;52.008;4.752;2023-03-26T08:20:55;100304.16;;;11.78;71.51
46534;BME280;32260;52.008;4.752;2023-03-26T08:29:20;100301.84;;;11.67;70.99
46534;BME280;32260;52.008;4.752;2023-03-26T08:31:52;100291.50;;;11.59;71.03
46534;BME280;32260;52.008;4.752;2023-03-26T08:34:19;100299.47;;;11.59;71.94
46534;BME280;32260;52.008;4.752;2023-03-26T08:36:45;100296.88;;;11.58;71.54
46534;BME280;32260;52.008;4.752;2023-03-26T08:39:11;100303.94;;;11.57;71.98
46534;BME280;32260;52.008;4.752;2023-03-26T08:44:59;100303.09;;;11.57;71.73
46534;BME280;32260;52.008;4.752;2023-03-26T08:56:42;100301.19;;;11.60;73.04
46534;BME280;32260;52.008;4.752;2023-03-26T08:59:36;100296.69;;;11.62;72.68
46534;BME280;32260;52.008;4.752;2023-03-26T09:02:46;100300.31;;;11.60;72.84
46534;BME280;32260;52.008;4.752;2023-03-26T09:05:16;100296.59;;;11.65;72.88
46534;BME280;32260;52.008;4.752;2023-03-26T09:10:49;100300.31;;;11.60;72.67
46534;BME280;32260;52.008;4.752;2023-03-26T09:16:40;100308.03;;;11.68;73.34
46534;BME280;32260;52.008;4.752;2023-03-26T09:25:17;100306.09;;;11.73;73.64
46534;BME280;32260;52.008;4.752;2023-03-26T09:33:27;100306.22;;;11.96;72.80
46534;BME280;32260;52.008;4.752;2023-03-26T09:36:17;100309.72;;;11.97;72.90
46534;BME280;32260;52.008;4.752;2023-03-26T09:38:51;100315.22;;;11.91;72.68
46534;BME280;32260;52.008;4.752;2023-03-26T09:41:34;100314.56;;;11.84;72.87
46534;BME280;32260;52.008;4.752;2023-03-26T09:52:41;100317.19;;;11.57;72.36
46534;BME280;32260;52.008;4.752;2023-03-26T10:12:24;100337.00;;;11.47;72.81
46534;BME280;32260;52.008;4.752;2023-03-26T10:16:05;100336.75;;;11.55;72.74
46534;BME280;32260;52.008;4.752;2023-03-26T10:17:51;100343.31;;;11.43;72.16
46534;BME280;32260;52.008;4.752;2023-03-26T10:24:00;100349.16;;;11.54;72.51
46534;BME280;32260;52.008;4.752;2023-03-26T10:26:23;100351.28;;;11.43;72.13
46534;BME280;32260;52.008;4.752;2023-03-26T10:31:46;100346.06;;;11.40;72.33
46534;BME280;32260;52.008;4.752;2023-03-26T10:34:43;100361.72;;;11.49;72.64
46534;BME280;32260;52.008;4.752;2023-03-26T10:37:30;100366.91;;;11.52;72.23
46534;BME280;32260;52.008;4.752;2023-03-26T10:45:45;100367.03;;;11.47;72.20
46534;BME280;32260;52.008;4.752;2023-03-26T10:51:58;100370.56;;;11.48;72.43
46534;BME280;32260;52.008;4.752;2023-03-26T10:54:31;100379.44;;;11.47;72.17
46534;BME280;32260;52.008;4.752;2023-03-26T10:57:02;100382.22;;;11.42;72.13
46534;BME280;32260;52.008;4.752;2023-03-26T10:59:30;100391.06;;;11.43;72.25
46534;BME280;32260;52.008;4.752;2023-03-26T11:05:26;100387.47;;;11.45;71.94
46534;BME280;32260;52.008;4.752;2023-03-26T11:08:12;100391.78;;;11.48;72.03
46534;BME280;32260;52.008;4.752;2023-03-26T11:13:38;100399.50;;;11.56;71.81
46534;BME280;32260;52.008;4.752;2023-03-26T11:16:15;100407.59;;;11.51;71.73
46534;BME280;32260;52.008;4.752;2023-03-26T11:18:52;100407.72;;;11.48;71.02
46534;BME280;32260;52.008;4.752;2023-03-26T11:21:37;100404.41;;;11.40;71.34
46534;BME280;32260;52.008;4.752;2023-03-26T11:27:06;100425.81;;;11.33;71.00
46534;BME280;32260;52.008;4.752;2023-03-26T11:30:28;100414.63;;;11.24;70.98
46534;BME280;32260;52.008;4.752;2023-03-26T11:32:45;100427.00;;;11.23;70.90
46534;BME280;32260;52.008;4.752;2023-03-26T11:35:34;100420.63;;;11.30;70.71
46534;BME280;32260;52.008;4.752;2023-03-26T11:38:06;100431.41;;;11.24;71.08
46534;BME280;32260;52.008;4.752;2023-03-26T11:40:38;100426.00;;;11.27;71.33
46534;BME280;32260;52.008;4.752;2023-03-26T11:43:10;100439.22;;;11.29;71.15
46534;BME280;32260;52.008;4.752;2023-03-26T11:45:40;100438.34;;;11.28;71.19
46534;BME280;32260;52.008;4.752;2023-03-26T11:50:50;100446.44;;;11.24;70.91
46534;BME280;32260;52.008;4.752;2023-03-26T11:53:19;100449.13;;;11.22;71.02
46534;BME280;32260;52.008;4.752;2023-03-26T11:55:57;100452.81;;;11.18;71.42
46534;BME280;32260;52.008;4.752;2023-03-26T12:01:11;100457.72;;;11.00;71.31
46534;BME280;32260;52.008;4.752;2023-03-26T12:03:37;100464.88;;;10.97;71.22
46534;BME280;32260;52.008;4.752;2023-03-26T12:06:09;100462.34;;;10.92;71.14
46534;BME280;32260;52.008;4.752;2023-03-26T12:08:48;100462.53;;;10.86;71.57
46534;BME280;32260;52.008;4.752;2023-03-26T12:11:14;100466.06;;;10.85;71.21
46534;BME280;32260;52.008;4.752;2023-03-26T12:13:50;100464.25;;;10.87;71.35
46534;BME280;32260;52.008;4.752;2023-03-26T12:16:19;100481.75;;;10.93;71.74
46534;BME280;32260;52.008;4.752;2023-03-26T12:18:56;100475.31;;;11.03;71.72
46534;BME280;32260;52.008;4.752;2023-03-26T12:21:23;100475.94;;;11.11;72.04
46534;BME280;32260;52.008;4.752;2023-03-26T12:29:13;100476.31;;;11.30;71.62
46534;BME280;32260;52.008;4.752;2023-03-26T12:31:45;100485.75;;;11.41;72.08
46534;BME280;32260;52.008;4.752;2023-03-26T12:34:28;100481.22;;;11.44;70.97
46534;BME280;32260;52.008;4.752;2023-03-26T12:37:40;100481.25;;;11.73;70.55
46534;BME280;32260;52.008;4.752;2023-03-26T12:40:32;100489.66;;;11.87;70.80
46534;BME280;32260;52.008;4.752;2023-03-26T12:43:02;100495.75;;;11.91;70.09
46534;BME280;32260;52.008;4.752;2023-03-26T12:45:36;100496.84;;;11.84;68.34
46534;BME280;32260;52.008;4.752;2023-03-26T12:48:04;100497.00;;;11.79;68.84
46534;BME280;32260;52.008;4.752;2023-03-26T12:50:39;100506.00;;;11.73;68.49
46534;BME280;32260;52.008;4.752;2023-03-26T12:56:10;100509.50;;;11.74;67.08
46534;BME280;32260;52.008;4.752;2023-03-26T13:01:36;100513.88;;;11.76;66.04
46534;BME280;32260;52.008;4.752;2023-03-26T13:07:20;100524.81;;;11.95;66.37
46534;BME280;32260;52.008;4.752;2023-03-26T13:15:22;100526.19;;;12.09;65.56
46534;BME280;32260;52.008;4.752;2023-03-26T13:20:48;100524.28;;;12.14;63.76
46534;BME280;32260;52.008;4.752;2023-03-26T13:26:41;100537.53;;;12.14;62.00
46534;BME280;32260;52.008;4.752;2023-03-26T13:29:24;100537.50;;;12.16;63.19
46534;BME280;32260;52.008;4.752;2023-03-26T13:32:22;100542.72;;;12.19;61.72
46534;BME280;32260;52.008;4.752;2023-03-26T13:36:02;100541.13;;;12.13;60.49
46534;BME280;32260;52.008;4.752;2023-03-26T13:41:30;100551.59;;;12.18;60.20
46534;BME280;32260;52.008;4.752;2023-03-26T13:44:07;100557.56;;;12.24;61.25
46534;BME280;32260;52.008;4.752;2023-03-26T13:46:43;100549.94;;;12.42;61.08
46534;BME280;32260;52.008;4.752;2023-03-26T13:49:19;100558.53;;;12.50;59.89
46534;BME280;32260;52.008;4.752;2023-03-26T13:51:54;100554.66;;;12.60;59.28
46534;BME280;32260;52.008;4.752;2023-03-26T13:59:57;100572.13;;;12.68;59.78
46534;BME280;32260;52.008;4.752;2023-03-26T14:02:39;100571.09;;;12.72;58.86
46534;BME280;32260;52.008;4.752;2023-03-26T14:05:16;100574.34;;;12.82;59.81
46534;BME280;32260;52.008;4.752;2023-03-26T14:10:50;100572.31;;;12.88;57.54
46534;BME280;32260;52.008;4.752;2023-03-26T14:13:31;100591.69;;;12.93;57.94
46534;BME280;32260;52.008;4.752;2023-03-26T14:17:21;100585.53;;;12.91;56.45
46534;BME280;32260;52.008;4.752;2023-03-26T14:19:34;100590.53;;;13.01;58.38
46534;BME280;32260;52.008;4.752;2023-03-26T14:25:07;100597.38;;;13.08;57.34
46534;BME280;32260;52.008;4.752;2023-03-26T14:27:47;100599.69;;;13.19;57.59
46534;BME280;32260;52.008;4.752;2023-03-26T14:30:34;100606.88;;;13.15;56.35
46534;BME280;32260;52.008;4.752;2023-03-26T14:36:37;100618.72;;;13.32;57.89
46534;BME280;32260;52.008;4.752;2023-03-26T14:43:24;100623.97;;;13.33;56.49
46534;BME280;32260;52.008;4.752;2023-03-26T14:53:45;100647.44;;;13.22;54.75
46534;BME280;32260;52.008;4.752;2023-03-26T14:56:31;100643.59;;;13.31;54.51
46534;BME280;32260;52.008;4.752;2023-03-26T15:02:26;100656.69;;;13.37;53.22
46534;BME280;32260;52.008;4.752;2023-03-26T15:20:07;100685.75;;;12.61;51.25
46534;BME280;32260;52.008;4.752;2023-03-26T15:23:24;100691.47;;;12.49;51.45
46534;BME280;32260;52.008;4.752;2023-03-26T15:32:23;100716.03;;;12.25;52.86
46534;BME280;32260;52.008;4.752;2023-03-26T15:34:51;100717.41;;;12.09;51.67
46534;BME280;32260;52.008;4.752;2023-03-26T15:37:51;100725.50;;;12.04;52.48
46534;BME280;32260;52.008;4.752;2023-03-26T15:46:57;100749.28;;;11.74;52.07
46534;BME280;32260;52.008;4.752;2023-03-26T15:49:40;100752.03;;;11.70;51.79
46534;BME280;32260;52.008;4.752;2023-03-26T15:52:32;100749.72;;;11.57;50.72
46534;BME280;32260;52.008;4.752;2023-03-26T15:58:27;100794.16;;;11.47;52.64
46534;BME280;32260;52.008;4.752;2023-03-26T16:01:10;100780.91;;;11.49;52.36
46534;BME280;32260;52.008;4.752;2023-03-26T16:15:14;100808.47;;;11.03;51.30
46534;BME280;32260;52.008;4.752;2023-03-26T16:23:28;100825.31;;;11.00;51.67
46534;BME280;32260;52.008;4.752;2023-03-26T16:27:00;100833.31;;;10.98;52.36
46534;BME280;32260;52.008;4.752;2023-03-26T16:31:24;100836.97;;;10.94;51.10
46534;BME280;32260;52.008;4.752;2023-03-26T16:33:58;100844.97;;;10.91;50.93
46534;BME280;32260;52.008;4.752;2023-03-26T16:36:37;100852.19;;;10.84;50.11
46534;BME280;32260;52.008;4.752;2023-03-26T16:44:44;100872.56;;;10.81;50.65
46534;BME280;32260;52.008;4.752;2023-03-26T16:53:48;100896.63;;;10.72;50.60
46534;BME280;32260;52.008;4.752;2023-03-26T16:55:57;100893.16;;;10.66;49.72
46534;BME280;32260;52.008;4.752;2023-03-26T16:58:47;100911.66;;;10.70;50.46
46534;BME280;32260;52.008;4.752;2023-03-26T17:02:02;100908.91;;;10.76;50.80
46534;BME280;32260;52.008;4.752;2023-03-26T17:04:19;100908.25;;;10.64;50.07
46534;BME280;32260;52.008;4.752;2023-03-26T17:09:40;100923.78;;;10.83;49.81
46534;BME280;32260;52.008;4.752;2023-03-26T17:15:16;100946.19;;;11.12;50.16
46534;BME280;32260;52.008;4.752;2023-03-26T17:20:31;100945.91;;;10.80;49.76
46534;BME280;32260;52.008;4.752;2023-03-26T17:26:07;100966.69;;;10.55;48.80
46534;BME280;32260;52.008;4.752;2023-03-26T17:35:38;100990.13;;;10.25;49.73
46534;BME280;32260;52.008;4.752;2023-03-26T17:42:36;100996.03;;;9.85;49.62
46534;BME280;32260;52.008;4.752;2023-03-26T17:47:53;101015.59;;;9.75;50.50
46534;BME280;32260;52.008;4.752;2023-03-26T17:50:33;101024.41;;;9.74;49.92
46534;BME280;32260;52.008;4.752;2023-03-26T17:53:17;101026.19;;;9.75;50.52
46534;BME280;32260;52.008;4.752;2023-03-26T17:55:45;101026.31;;;9.64;50.02
46534;BME280;32260;52.008;4.752;2023-03-26T17:58:39;101037.75;;;9.66;50.67